Flugplatz Nördlingen

Für EDNO sind keine METAR/TAF Berichte vorhanden.
Es werden die Flugwettermeldungen vom Flugplatz Ansbach Army Heliport in 49 km Entfernung angezeigt.

Bericht für ETEB

vom 14.08. um 19:56 UTC

Wind 5 kt aus 110°

Sichtweite 10 km oder mehr

gering bewölkt in 8500 ft

Temperatur 24.0°C

Taupunkt 13.8°C

Luftfeuchtigkeit 53%

Luftdruck 1007 hPa

ETEB 141956Z AUTO 11005KT 9999 FEW085 24/14 A2974 RMK AO2 SLP061 T02400138 $
Keine Prognose (TAF) verfügbar.
Impressum